Ionas Dragoumis, Greece

8:30 AM EEST on August 30, 2016 (GMT +0300)
Ohrid | | Change Station

Elev 2313 ft 41.18 °N, 20.74 °E | Updated 39 seconds ago

Clear
Clear
59 °F
Feels Like 59 °F
N
6
Wind Variable Wind from NNW

Today
High -- | Low -- °F
--% Chance of Precip.
Yesterday
High -- | Low -- °F
Precip. -- in
Pressure 30.09 in
Visibility -9999.0 miles
Clouds
Dew Point 54 °F
Humidity 82%
Rainfall 0.00 in
Snow Depth Not available.
7:00 AM 8:09 PM
Waning Crescent, 5% visible
METAR LWOH 300530Z 33005KT CAVOK 15/12 Q1019
Pressure 30.09 in
Visibility -9999.0 miles
Clouds
Dew Point 54 °F
Humidity 82%
Rainfall 0.00 in
Snow Depth Not available.
7:00 AM 8:09 PM
Waning Crescent, 5% visible
METAR LWOH 300530Z 33005KT CAVOK 15/12 Q1019

10-Day Weather Forecast

×

Almanac

Astronomy

Aug. 30, 2016 Rise Set
Actual Time
Civil Twilight
Nautical Twilight
Astronomical Twilight
Moon
Length of Visible Light
Length of Day
Tomorrow will be .
, % of the Moon is Illuminated

Today's Extremes

Country Highs Country Lows

Community

WunderPhotos

Upload Photos

1,935,793 photos uploaded!

WunderBlog® & News

Nearby

Air Quality

  Air Quality AQ Index Pollutant
Not available.

Snow Depth

Station Depth Elevation

Earthquake Activity

City Distance Mag. Time & Date
Minimum magnitude displayed is 2.5.

Coastal Water Temperatures

Place Temperature

Stations

Nearby Weather Stations

Station Location Temp. Windchill Dew Point Humidity Wind Precip. Elev Updated Type